createdAt,value
2023-08-29T00:11:39.566Z,33.30
2023-08-29T00:26:39.540Z,33.10
2023-08-29T00:41:39.805Z,32.90
2023-08-29T00:56:40.128Z,32.80
2023-08-29T01:11:40.506Z,33.30
2023-08-29T01:26:40.750Z,33.70
2023-08-29T01:41:41.083Z,33.50
2023-08-29T01:56:41.426Z,33.30
2023-08-29T02:11:41.722Z,33.40
2023-08-29T02:26:42.021Z,33.80
2023-08-29T02:41:42.336Z,33.90
2023-08-29T02:56:42.661Z,33.90
2023-08-29T03:11:43.012Z,33.80
2023-08-29T03:26:43.366Z,33.10
2023-08-29T03:41:43.638Z,33.60
2023-08-29T03:56:43.942Z,33.80
2023-08-29T04:11:44.200Z,33.60
2023-08-29T04:26:44.530Z,33.60
2023-08-29T04:41:44.846Z,33.70
2023-08-29T04:56:45.164Z,33.80
2023-08-29T05:11:45.538Z,33.90
2023-08-29T05:26:45.817Z,33.60
2023-08-29T05:41:46.223Z,33.50
2023-08-29T05:56:46.462Z,33.70
2023-08-29T06:11:46.729Z,34.00
2023-08-29T06:26:47.129Z,34.10
2023-08-29T06:41:47.507Z,34.20
2023-08-29T06:56:47.934Z,34.30
2023-08-29T07:11:50.061Z,34.30
2023-08-29T07:26:48.501Z,34.20
2023-08-29T07:41:48.808Z,34.20
2023-08-29T07:56:49.296Z,34.30
2023-08-29T08:11:49.679Z,34.50
2023-08-29T08:26:49.970Z,34.60
2023-08-29T08:46:15.319Z,34.60
2023-08-29T09:01:18.076Z,34.90
2023-08-29T09:16:16.495Z,34.80
2023-08-29T09:31:16.856Z,35.10
2023-08-29T09:46:17.270Z,35.30
2023-08-29T10:49:20.673Z,35.50
2023-08-29T11:04:21.639Z,35.30
2023-08-29T11:19:21.742Z,35.30
2023-08-29T11:34:22.040Z,35.20
2023-08-29T11:49:22.722Z,35.40
2023-08-29T12:04:24.299Z,35.70
2023-08-29T12:19:23.036Z,35.50
2023-08-29T12:34:24.944Z,35.50
2023-08-29T12:49:23.673Z,35.50
2023-08-29T13:04:23.977Z,35.70
2023-08-29T13:19:24.303Z,35.70
2023-08-29T13:34:24.652Z,35.50
2023-08-29T13:49:24.974Z,35.40
2023-08-29T14:04:25.277Z,35.60
2023-08-29T14:19:25.597Z,35.80
2023-08-29T14:34:25.914Z,35.90
2023-08-29T14:49:26.248Z,35.90
2023-08-29T15:04:26.539Z,35.80
2023-08-29T15:19:27.058Z,35.60
2023-08-29T15:34:28.460Z,35.30
2023-08-29T15:49:27.704Z,35.30
2023-08-29T16:04:27.847Z,35.30
2023-08-29T16:19:28.250Z,35.10
2023-08-29T16:34:29.826Z,35.30
2023-08-29T16:49:28.790Z,35.10
2023-08-29T17:04:29.080Z,35.10
2023-08-29T17:19:29.413Z,35.00
2023-08-29T17:34:29.922Z,35.00
2023-08-29T17:49:31.164Z,35.10
2023-08-29T18:04:30.313Z,35.30
2023-08-29T18:19:30.694Z,35.20
2023-08-29T18:34:30.937Z,35.20
2023-08-29T18:49:31.354Z,35.10
2023-08-29T19:04:31.676Z,34.80
2023-08-29T19:19:31.960Z,34.60
2023-08-29T19:34:32.245Z,34.70
2023-08-29T19:49:32.589Z,34.70
2023-08-29T20:04:32.878Z,34.70
2023-08-29T20:19:36.178Z,35.00
2023-08-29T20:34:36.436Z,35.00
2023-08-29T20:49:36.783Z,35.00
2023-08-29T21:04:37.079Z,34.90
2023-08-29T21:19:37.448Z,34.80
2023-08-29T21:34:37.705Z,34.60
2023-08-29T21:49:38.070Z,34.50
2023-08-29T22:04:38.484Z,34.40
2023-08-29T22:19:38.690Z,34.30
2023-08-29T22:34:39.016Z,34.30
2023-08-29T22:49:39.338Z,34.60
2023-08-29T23:04:39.643Z,34.50
2023-08-29T23:19:39.953Z,34.50
2023-08-29T23:34:40.259Z,34.50
2023-08-29T23:49:40.568Z,34.40
